createdAt,value
2022-12-19T20:24:16.580Z,2234.00
2022-12-19T20:25:16.491Z,2207.00
2022-12-19T20:26:16.512Z,2200.00
2022-12-19T20:27:16.809Z,2194.00
2022-12-19T20:28:16.004Z,2191.00
2022-12-19T20:29:16.347Z,2197.00
2022-12-19T20:30:15.738Z,2200.00
2022-12-19T20:31:15.685Z,2225.00
2022-12-19T20:32:15.405Z,2237.00
2022-12-19T20:33:15.335Z,2281.00
2022-12-19T20:34:15.329Z,2284.00
2022-12-19T20:35:15.325Z,2280.00
2022-12-19T20:36:15.649Z,2285.00
2022-12-19T20:37:14.848Z,2294.00
2022-12-19T20:38:16.670Z,2313.00
2022-12-19T20:40:13.813Z,2328.00
2022-12-19T20:41:13.728Z,2816.00
2022-12-19T20:42:13.543Z,2396.00
2022-12-19T20:43:13.325Z,2333.00
2022-12-19T20:44:15.478Z,2345.00
2022-12-19T20:45:12.844Z,2352.00
2022-12-19T20:46:12.791Z,2340.00
2022-12-19T20:47:12.544Z,2333.00
2022-12-19T20:48:12.372Z,2330.00
2022-12-19T20:49:12.135Z,2339.00
2022-12-19T20:50:12.661Z,2344.00
2022-12-19T20:51:11.845Z,2348.00
2022-12-19T20:52:11.569Z,2386.00
2022-12-19T20:53:11.340Z,2399.00
2022-12-19T20:54:11.152Z,2383.00
2022-12-19T21:13:21.094Z,2267.00
2022-12-19T21:14:20.596Z,2203.00
2022-12-19T21:15:21.044Z,2215.00
2022-12-19T21:16:20.694Z,2229.00
2022-12-19T21:17:20.615Z,2251.00
2022-12-19T21:18:20.608Z,2288.00
2022-12-19T21:19:19.601Z,2307.00
2022-12-19T21:20:19.493Z,2341.00
2022-12-19T21:23:01.925Z,2418.00
2022-12-19T21:37:01.177Z,1649.00
2022-12-19T21:48:00.229Z,1554.00
2022-12-19T21:49:00.055Z,1550.00
2022-12-19T21:50:59.739Z,1537.00
2022-12-19T22:01:58.884Z,1544.00
2022-12-19T22:08:57.952Z,1539.00
2022-12-19T22:09:57.822Z,1536.00
2022-12-19T22:10:58.128Z,1534.00
2022-12-19T22:11:57.418Z,1530.00
2022-12-19T22:12:57.644Z,1535.00
2022-12-19T22:13:57.634Z,1535.00
2022-12-19T22:14:58.162Z,1533.00
2022-12-19T22:15:57.162Z,1533.00
2022-12-19T22:16:57.116Z,1534.00
2022-12-19T22:17:56.946Z,1529.00
2022-12-19T22:18:56.982Z,1532.00
2022-12-19T22:19:57.165Z,1535.00
2022-12-19T22:20:56.674Z,1532.00
2022-12-19T22:21:56.573Z,1529.00
2022-12-19T22:22:57.209Z,1531.00
2022-12-19T22:23:56.394Z,1531.00
2022-12-19T22:24:56.188Z,1530.00
2022-12-19T22:25:56.099Z,1534.00
2022-12-19T22:26:55.980Z,1535.00
2022-12-19T22:27:57.634Z,1533.00
2022-12-19T22:28:56.839Z,1532.00
2022-12-19T22:29:56.206Z,1529.00
2022-12-19T22:30:55.646Z,1534.00
2022-12-19T22:31:55.458Z,1531.00
2022-12-19T22:32:55.313Z,1534.00
2022-12-19T22:33:55.850Z,1531.00
2022-12-19T22:34:55.240Z,1528.00
2022-12-19T22:35:56.161Z,1529.00
2022-12-19T22:36:55.160Z,1530.00
2022-12-19T22:37:55.710Z,1526.00
2022-12-19T22:38:54.837Z,1529.00
2022-12-19T22:39:54.561Z,1530.00
2022-12-19T22:40:54.440Z,1528.00
2022-12-19T22:41:54.685Z,1532.00
2022-12-19T22:42:54.680Z,1528.00
2022-12-19T22:43:54.367Z,1528.00
2022-12-19T22:44:54.057Z,1530.00
2022-12-19T22:45:54.013Z,1532.00
2022-12-19T22:46:54.281Z,1530.00
2022-12-19T22:47:53.767Z,1530.00
2022-12-19T22:48:56.781Z,1528.00
2022-12-19T22:49:53.498Z,1531.00
2022-12-19T22:50:53.412Z,1528.00
2022-12-19T22:51:53.285Z,1530.00
2022-12-19T22:52:53.217Z,1532.00
2022-12-19T22:53:54.799Z,1537.00
2022-12-19T22:54:54.751Z,1535.00
2022-12-19T22:55:52.799Z,1534.00
2022-12-19T22:56:52.702Z,1530.00
2022-12-19T22:57:52.605Z,1531.00
2022-12-19T22:58:53.227Z,1529.00
2022-12-19T22:59:52.766Z,1529.00
2022-12-19T23:00:52.235Z,1531.00
2022-12-19T23:01:52.318Z,1524.00
2022-12-19T23:02:52.394Z,1520.00
2022-12-19T23:03:52.421Z,1528.00
2022-12-19T23:04:52.242Z,1530.00
2022-12-19T23:05:52.191Z,1531.00
2022-12-19T23:06:51.540Z,1532.00
2022-12-19T23:07:51.776Z,1536.00
2022-12-19T23:08:51.784Z,1536.00
2022-12-19T23:09:51.150Z,1534.00
2022-12-19T23:10:51.063Z,1536.00
2022-12-19T23:11:51.004Z,1539.00
2022-12-19T23:12:51.387Z,1540.00
2022-12-19T23:13:50.786Z,1534.00
2022-12-19T23:14:50.588Z,1533.00
2022-12-19T23:15:50.489Z,1535.00
2022-12-19T23:16:50.412Z,1536.00
2022-12-19T23:17:50.285Z,1537.00
2022-12-19T23:18:53.256Z,1538.00
2022-12-19T23:19:49.996Z,1540.00
2022-12-19T23:20:49.887Z,1539.00
2022-12-19T23:21:49.808Z,1543.00
2022-12-19T23:22:49.804Z,1542.00
2022-12-19T23:23:49.539Z,1540.00
2022-12-19T23:24:49.404Z,1539.00
2022-12-19T23:25:49.309Z,1537.00
2022-12-19T23:26:50.767Z,1540.00
2022-12-19T23:27:49.055Z,1543.00
2022-12-19T23:28:48.923Z,1547.00
2022-12-19T23:29:48.836Z,1550.00
2022-12-19T23:30:49.244Z,1545.00
2022-12-19T23:31:48.808Z,1548.00
2022-12-19T23:32:50.874Z,1550.00
2022-12-19T23:33:48.357Z,1555.00
2022-12-19T23:34:48.273Z,1559.00
2022-12-19T23:35:48.769Z,1556.00
2022-12-19T23:37:49.309Z,1557.00
2022-12-19T23:38:48.287Z,1558.00
2022-12-19T23:39:48.276Z,1559.00
2022-12-19T23:40:47.669Z,1557.00
2022-12-19T23:41:47.606Z,1555.00
2022-12-19T23:42:47.512Z,1558.00
2022-12-19T23:43:47.807Z,1558.00
2022-12-19T23:44:47.180Z,1561.00
2022-12-19T23:45:47.807Z,1558.00
2022-12-19T23:46:46.988Z,1560.00
2022-12-19T23:47:46.805Z,1560.00
2022-12-19T23:48:46.736Z,1562.00
2022-12-19T23:49:46.601Z,1562.00
2022-12-19T23:50:46.436Z,1559.00
2022-12-19T23:51:46.331Z,1558.00
2022-12-19T23:52:46.210Z,1556.00
2022-12-19T23:53:47.656Z,1551.00
2022-12-19T23:54:46.051Z,1556.00
2022-12-19T23:55:45.850Z,1550.00
2022-12-19T23:56:45.734Z,1556.00
2022-12-19T23:57:46.273Z,1559.00
2022-12-19T23:58:45.875Z,1564.00
2022-12-19T23:59:46.176Z,1562.00
